createdAt,value
2023-02-16T00:05:47.368Z,9.2
2023-02-16T00:13:19.667Z,8.3
2023-02-16T00:20:51.957Z,9.4
2023-02-16T00:28:24.221Z,8.4
2023-02-16T00:35:56.525Z,9.1
2023-02-16T00:43:28.847Z,9.0
2023-02-16T00:51:01.392Z,7.7
2023-02-16T00:58:33.890Z,7.3
2023-02-16T01:06:06.181Z,7.9
2023-02-16T01:13:38.455Z,8.9
2023-02-16T01:21:10.735Z,8.2
2023-02-16T01:28:43.016Z,7.1
2023-02-16T01:36:15.278Z,7.8
2023-02-16T01:43:47.567Z,6.6
2023-02-16T01:51:19.851Z,7.5
2023-02-16T01:58:52.132Z,7.9
2023-02-16T02:06:24.427Z,8.2
2023-02-16T02:13:56.746Z,7.0
2023-02-16T02:21:29.034Z,7.1
2023-02-16T02:29:01.368Z,6.0
2023-02-16T02:36:33.651Z,7.2
2023-02-16T02:44:06.009Z,7.6
2023-02-16T02:51:38.328Z,7.3
2023-02-16T02:59:10.637Z,6.4
2023-02-16T03:06:42.952Z,6.0
2023-02-16T03:14:15.224Z,5.8
2023-02-16T03:21:47.495Z,6.0
2023-02-16T03:29:19.782Z,7.1
2023-02-16T03:36:52.075Z,5.8
2023-02-16T03:44:24.371Z,6.5
2023-02-16T03:51:56.695Z,4.9
2023-02-16T03:59:29.018Z,5.8
2023-02-16T04:07:01.578Z,6.0
2023-02-16T04:14:33.997Z,6.7
2023-02-16T04:22:06.313Z,6.1
2023-02-16T04:29:38.750Z,5.9
2023-02-16T04:37:11.064Z,7.1
2023-02-16T04:44:43.367Z,7.1
2023-02-16T04:52:15.661Z,7.0
2023-02-16T04:59:47.976Z,6.3
2023-02-16T05:07:20.608Z,8.6
2023-02-16T05:14:53.006Z,8.3
2023-02-16T05:15:40.402Z,6.9
2023-02-16T05:16:28.239Z,7.8
2023-02-16T05:17:15.748Z,8.1
2023-02-16T05:18:03.067Z,6.7
2023-02-16T05:18:50.419Z,8.9
2023-02-16T05:19:37.844Z,9.1
2023-02-16T05:20:25.142Z,9.3
2023-02-16T05:21:12.462Z,8.4
2023-02-16T05:21:59.889Z,6.9
2023-02-16T05:22:47.194Z,9.3
2023-02-16T05:23:34.506Z,9.5
2023-02-16T05:24:21.938Z,8.8
2023-02-16T05:25:09.266Z,9.9
2023-02-16T05:25:56.583Z,6.8
2023-02-16T05:26:44.033Z,8.4
2023-02-16T05:27:31.395Z,10.5
2023-02-16T05:28:18.774Z,9.7
2023-02-16T05:29:06.153Z,8.8
2023-02-16T05:29:53.469Z,11.0
2023-02-16T05:30:40.869Z,11.3
2023-02-16T05:31:28.330Z,10.2
2023-02-16T05:32:15.743Z,10.5
2023-02-16T05:33:03.097Z,11.2
2023-02-16T05:33:50.533Z,11.1
2023-02-16T05:34:37.880Z,12.1
2023-02-16T05:35:25.190Z,10.6
2023-02-16T05:36:12.635Z,10.8
2023-02-16T05:36:59.970Z,9.6
2023-02-16T05:37:47.316Z,11.4
2023-02-16T05:38:34.722Z,11.6
2023-02-16T05:39:22.278Z,13.1
2023-02-16T05:40:09.595Z,11.5
2023-02-16T05:40:57.009Z,12.0
2023-02-16T05:41:44.381Z,11.5
2023-02-16T05:42:31.736Z,17.3
2023-02-16T05:43:19.616Z,14.0
2023-02-16T05:44:07.112Z,14.5
2023-02-16T05:44:54.443Z,12.5
2023-02-16T05:45:41.793Z,12.2
2023-02-16T05:46:29.220Z,11.8
2023-02-16T05:47:16.584Z,11.9
2023-02-16T05:48:03.906Z,13.1
2023-02-16T05:48:51.308Z,13.2
2023-02-16T05:49:38.634Z,12.9
2023-02-16T05:50:25.959Z,12.7
2023-02-16T05:51:13.347Z,12.1
2023-02-16T05:52:00.661Z,13.1
2023-02-16T05:52:48.055Z,10.8
2023-02-16T05:53:35.658Z,11.8
2023-02-16T05:54:22.977Z,13.2
2023-02-16T05:55:10.308Z,13.8
2023-02-16T05:55:57.767Z,13.3
2023-02-16T05:56:45.081Z,12.9
2023-02-16T05:57:32.405Z,12.9
2023-02-16T05:58:19.943Z,11.4
2023-02-16T05:59:07.296Z,10.5
2023-02-16T05:59:54.629Z,15.5
2023-02-16T06:00:42.149Z,10.1
2023-02-16T06:01:29.487Z,12.7
2023-02-16T06:02:16.905Z,13.2
2023-02-16T06:03:04.281Z,12.5
2023-02-16T06:03:51.782Z,26.4
2023-02-16T06:04:39.127Z,21.1
2023-02-16T06:05:26.565Z,33.5
2023-02-16T06:06:13.922Z,29.1
2023-02-16T06:07:01.285Z,29.4
2023-02-16T06:07:48.694Z,29.2
2023-02-16T06:08:36.065Z,24.2
2023-02-16T06:09:23.376Z,29.3
2023-02-16T06:10:10.833Z,32.2
2023-02-16T06:10:58.166Z,37.6
2023-02-16T06:11:45.505Z,42.7
2023-02-16T06:12:32.936Z,34.3
2023-02-16T06:13:20.279Z,38.3
2023-02-16T06:14:07.593Z,39.9
2023-02-16T06:14:55.080Z,48.5
2023-02-16T06:15:42.468Z,41.7
2023-02-16T06:16:29.851Z,41.1
2023-02-16T06:17:17.241Z,41.2
2023-02-16T06:18:04.590Z,38.2
2023-02-16T06:18:51.963Z,45.5
2023-02-16T06:19:39.366Z,43.5
2023-02-16T06:20:26.736Z,40.7
2023-02-16T06:21:14.057Z,39.9
2023-02-16T06:22:01.506Z,42.0
2023-02-16T06:22:49.076Z,39.6
2023-02-16T06:23:36.434Z,36.1
2023-02-16T06:24:23.856Z,43.4
2023-02-16T06:25:11.227Z,51.6
2023-02-16T06:25:58.569Z,44.2
2023-02-16T06:26:45.976Z,39.3
2023-02-16T06:27:33.338Z,39.3
2023-02-16T06:28:20.714Z,38.0
2023-02-16T06:29:08.279Z,35.2
2023-02-16T06:29:55.751Z,30.7
2023-02-16T06:30:43.129Z,26.8
2023-02-16T06:31:30.587Z,27.1
2023-02-16T06:32:18.077Z,31.8
2023-02-16T06:33:05.525Z,31.0
2023-02-16T06:33:52.875Z,32.1
2023-02-16T06:34:40.209Z,36.9
2023-02-16T06:35:27.534Z,29.4
2023-02-16T06:36:14.950Z,31.7
2023-02-16T06:37:02.308Z,27.6
2023-02-16T06:37:49.659Z,27.9
2023-02-16T06:38:37.061Z,25.2
2023-02-16T06:39:24.403Z,25.0
2023-02-16T06:40:11.751Z,30.7
2023-02-16T06:40:59.168Z,39.5
2023-02-16T06:41:46.496Z,31.8
2023-02-16T06:42:33.874Z,32.9
2023-02-16T06:43:21.225Z,32.1
2023-02-16T06:44:08.596Z,31.9
2023-02-16T06:44:55.941Z,37.6
2023-02-16T06:45:43.312Z,33.9
2023-02-16T06:46:30.712Z,58.9
2023-02-16T06:47:18.091Z,42.6
2023-02-16T06:48:05.541Z,36.6
2023-02-16T06:48:52.938Z,34.0
2023-02-16T06:49:40.315Z,30.4
2023-02-16T06:50:28.084Z,29.4
2023-02-16T06:51:15.773Z,30.0
2023-02-16T06:52:03.161Z,30.3
2023-02-16T06:52:50.495Z,42.8
2023-02-16T06:53:37.931Z,32.7
2023-02-16T06:54:25.256Z,26.8
2023-02-16T06:55:12.604Z,25.8
2023-02-16T06:56:00.032Z,26.1
2023-02-16T06:56:47.416Z,26.8
2023-02-16T06:57:34.786Z,20.2
2023-02-16T06:58:22.213Z,24.0
2023-02-16T06:59:09.569Z,26.0
2023-02-16T06:59:56.946Z,18.9
2023-02-16T07:00:44.436Z,19.6
2023-02-16T07:01:31.812Z,23.0
2023-02-16T07:02:19.150Z,18.1
2023-02-16T07:03:06.583Z,21.8
2023-02-16T07:03:53.938Z,19.2
2023-02-16T07:04:41.281Z,19.4
2023-02-16T07:05:28.725Z,19.4
2023-02-16T07:06:16.075Z,19.5
2023-02-16T07:07:03.382Z,18.8
2023-02-16T07:07:50.840Z,18.2
2023-02-16T07:08:38.212Z,17.0
2023-02-16T07:09:25.545Z,17.5
2023-02-16T07:10:13.367Z,18.4
2023-02-16T07:11:00.731Z,16.2
2023-02-16T07:11:48.043Z,18.4
2023-02-16T07:12:35.369Z,15.6
2023-02-16T07:13:22.714Z,15.4
2023-02-16T07:14:10.057Z,23.1
2023-02-16T07:14:57.450Z,23.4
2023-02-16T07:15:44.903Z,34.0
2023-02-16T07:16:32.311Z,26.5
2023-02-16T07:17:19.669Z,24.8
2023-02-16T07:18:06.979Z,30.0
2023-02-16T07:18:54.375Z,32.4
2023-02-16T07:19:41.720Z,30.8
2023-02-16T07:20:29.066Z,82.0
2023-02-16T07:21:16.400Z,42.7
2023-02-16T07:22:03.718Z,36.0
2023-02-16T07:22:51.072Z,28.3
2023-02-16T07:23:39.005Z,39.5
2023-02-16T07:24:26.334Z,30.1
2023-02-16T07:25:13.768Z,24.9
2023-02-16T07:26:01.123Z,26.0
2023-02-16T07:26:48.452Z,29.9
2023-02-16T07:27:35.928Z,30.0
2023-02-16T07:28:23.260Z,30.1
2023-02-16T07:29:10.601Z,23.9
2023-02-16T07:29:58.067Z,22.1
2023-02-16T07:30:45.422Z,27.0
2023-02-16T07:31:32.914Z,45.2
2023-02-16T07:32:20.321Z,35.4
2023-02-16T07:33:07.681Z,28.4
2023-02-16T07:33:55.014Z,30.7
2023-02-16T07:34:42.453Z,30.4
2023-02-16T07:35:29.802Z,41.4
2023-02-16T07:36:17.141Z,34.2
2023-02-16T07:37:04.575Z,29.0
2023-02-16T07:37:51.917Z,29.7
2023-02-16T07:38:39.295Z,29.3
2023-02-16T07:39:26.678Z,72.0
2023-02-16T07:40:14.007Z,56.7
2023-02-16T07:41:01.354Z,33.2
2023-02-16T07:41:48.732Z,31.2
2023-02-16T07:42:36.333Z,32.7
2023-02-16T07:43:23.762Z,28.4
2023-02-16T07:44:11.181Z,33.9
2023-02-16T07:44:58.573Z,33.1
2023-02-16T07:45:48.190Z,63.9
2023-02-16T07:46:35.581Z,41.5
2023-02-16T07:47:22.923Z,31.4
2023-02-16T07:48:10.266Z,30.1
2023-02-16T07:48:57.590Z,26.2
2023-02-16T07:49:45.024Z,28.6
2023-02-16T07:50:32.405Z,30.8
2023-02-16T07:51:19.776Z,53.5
2023-02-16T07:52:07.197Z,40.2
2023-02-16T07:52:54.598Z,35.2
2023-02-16T07:53:42.002Z,26.0
2023-02-16T07:54:29.881Z,27.3
2023-02-16T07:55:17.421Z,29.3
2023-02-16T07:56:04.761Z,28.6
2023-02-16T07:56:52.138Z,33.6
2023-02-16T07:57:39.534Z,33.4
2023-02-16T07:58:26.918Z,31.0
2023-02-16T07:59:14.427Z,36.4
2023-02-16T08:00:01.824Z,51.4
2023-02-16T08:00:49.181Z,48.2
2023-02-16T08:01:36.539Z,50.2
2023-02-16T08:02:24.042Z,36.4
2023-02-16T08:03:11.546Z,30.1
2023-02-16T08:03:58.943Z,26.3
2023-02-16T08:04:46.349Z,25.5
2023-02-16T08:05:34.187Z,19.0
2023-02-16T08:06:21.530Z,20.4
2023-02-16T08:07:08.928Z,24.0
2023-02-16T08:07:56.279Z,21.4
2023-02-16T08:08:43.677Z,22.8
2023-02-16T08:09:31.022Z,21.0
2023-02-16T08:10:18.409Z,21.6
2023-02-16T08:11:06.095Z,19.2
2023-02-16T08:11:53.597Z,19.0
2023-02-16T08:12:41.145Z,18.7
2023-02-16T08:13:28.475Z,18.9
2023-02-16T08:14:15.786Z,20.2
2023-02-16T08:15:03.223Z,19.0
2023-02-16T08:15:50.551Z,15.0
2023-02-16T08:16:38.020Z,18.0
2023-02-16T08:17:25.544Z,20.9
2023-02-16T08:18:12.895Z,72.1
2023-02-16T08:19:00.236Z,35.3
2023-02-16T08:19:47.657Z,33.4
2023-02-16T08:20:51.136Z,52.7
2023-02-16T08:21:32.301Z,27.9
2023-02-16T08:22:19.690Z,20.9
2023-02-16T08:23:07.036Z,23.9
2023-02-16T08:23:54.377Z,27.4
2023-02-16T08:24:41.785Z,32.8
2023-02-16T08:25:29.112Z,32.6
2023-02-16T08:26:16.433Z,96.9
2023-02-16T08:27:04.308Z,33.6
2023-02-16T08:27:51.899Z,27.5
2023-02-16T08:28:39.239Z,24.6
2023-02-16T08:29:26.564Z,23.0
2023-02-16T08:30:14.029Z,27.7
2023-02-16T08:31:01.445Z,45.8
2023-02-16T08:31:48.889Z,47.0
2023-02-16T08:32:36.331Z,38.7
2023-02-16T08:33:23.670Z,35.0
2023-02-16T08:34:11.005Z,29.7
2023-02-16T08:34:58.417Z,37.8
2023-02-16T08:35:45.751Z,52.9
2023-02-16T08:36:33.082Z,28.8
2023-02-16T08:37:20.494Z,27.7
2023-02-16T08:38:07.827Z,22.3
2023-02-16T08:38:55.181Z,20.7
2023-02-16T08:39:42.605Z,22.7
2023-02-16T08:40:30.128Z,20.2
2023-02-16T08:41:17.486Z,21.7
2023-02-16T08:42:04.904Z,20.1
2023-02-16T08:42:52.250Z,17.1
2023-02-16T08:43:39.808Z,20.5
2023-02-16T08:44:27.177Z,19.3
2023-02-16T08:45:14.513Z,16.3
2023-02-16T08:46:01.934Z,16.0
2023-02-16T08:46:49.293Z,17.2
2023-02-16T08:47:36.625Z,19.0
2023-02-16T08:48:23.941Z,15.7
2023-02-16T08:49:11.382Z,15.2
2023-02-16T08:49:58.733Z,16.1
2023-02-16T08:50:46.052Z,12.7
2023-02-16T08:51:33.474Z,14.3
2023-02-16T08:52:20.791Z,16.1
2023-02-16T08:53:08.168Z,12.8
2023-02-16T08:53:55.535Z,13.5
2023-02-16T08:54:42.857Z,15.7
2023-02-16T08:55:30.166Z,12.6
2023-02-16T08:56:17.583Z,15.0
2023-02-16T08:57:04.903Z,13.3
2023-02-16T08:57:52.231Z,15.2
2023-02-16T08:58:40.298Z,16.8
2023-02-16T08:59:28.854Z,16.9
2023-02-16T09:00:16.424Z,17.5
2023-02-16T09:01:03.786Z,18.5
2023-02-16T09:01:51.135Z,18.3
2023-02-16T09:02:38.547Z,16.5
2023-02-16T09:03:25.904Z,14.2
2023-02-16T09:04:13.228Z,17.1
2023-02-16T09:05:00.546Z,15.6
2023-02-16T09:05:47.856Z,15.2
2023-02-16T09:06:35.171Z,14.7
2023-02-16T09:07:22.475Z,16.2
2023-02-16T09:08:09.867Z,16.1
2023-02-16T09:08:57.193Z,14.0
2023-02-16T09:09:44.520Z,17.5
2023-02-16T09:10:31.842Z,18.4
2023-02-16T09:11:19.164Z,18.2
2023-02-16T09:12:06.596Z,20.0
2023-02-16T09:12:54.101Z,19.5
2023-02-16T09:13:41.477Z,22.0
2023-02-16T09:14:28.814Z,25.5
2023-02-16T09:15:16.167Z,19.1
2023-02-16T09:16:03.790Z,19.3
2023-02-16T09:16:51.918Z,22.1
2023-02-16T09:17:39.248Z,21.2
2023-02-16T09:18:26.628Z,21.4
2023-02-16T09:19:13.945Z,19.3
2023-02-16T09:20:01.266Z,16.8
2023-02-16T09:20:48.579Z,14.7
2023-02-16T09:21:36.100Z,18.1
2023-02-16T09:22:23.427Z,17.3
2023-02-16T09:23:10.805Z,16.1
2023-02-16T09:23:58.248Z,17.3
2023-02-16T09:24:45.612Z,16.3
2023-02-16T09:25:32.950Z,17.0
2023-02-16T09:26:20.268Z,18.2
2023-02-16T09:27:07.589Z,18.0
2023-02-16T09:27:54.925Z,18.5
2023-02-16T09:28:42.424Z,18.4
2023-02-16T09:29:29.734Z,16.1
2023-02-16T09:30:17.115Z,17.8
2023-02-16T09:31:04.577Z,18.8
2023-02-16T09:31:51.976Z,17.0
2023-02-16T09:32:39.327Z,19.0
2023-02-16T09:33:26.854Z,19.8
2023-02-16T09:34:14.201Z,21.4
2023-02-16T09:35:01.581Z,20.5
2023-02-16T09:35:48.912Z,22.1
2023-02-16T09:36:36.271Z,24.9
2023-02-16T09:37:23.621Z,23.5
2023-02-16T09:38:10.971Z,20.3
2023-02-16T09:38:58.329Z,19.3
2023-02-16T09:39:45.929Z,18.4
2023-02-16T09:40:33.319Z,16.8
2023-02-16T09:41:20.653Z,18.4
2023-02-16T09:42:07.975Z,16.7
2023-02-16T09:42:55.328Z,15.6
2023-02-16T09:43:42.642Z,15.7
2023-02-16T09:44:29.965Z,17.3
2023-02-16T09:45:17.295Z,24.5
2023-02-16T09:46:04.891Z,38.4
2023-02-16T09:46:52.406Z,30.4
2023-02-16T09:47:39.971Z,26.2
2023-02-16T09:48:27.329Z,29.5
2023-02-16T09:49:14.673Z,32.1
2023-02-16T09:50:02.164Z,38.9
2023-02-16T09:50:54.603Z,34.8
2023-02-16T09:51:42.192Z,29.9
2023-02-16T09:52:30.080Z,31.1
2023-02-16T09:53:17.595Z,27.1
2023-02-16T09:54:04.922Z,23.3
2023-02-16T09:54:52.281Z,22.0
2023-02-16T09:55:39.638Z,22.1
2023-02-16T09:56:27.106Z,20.9
2023-02-16T09:57:14.448Z,21.5
2023-02-16T09:58:01.906Z,23.9
2023-02-16T09:58:49.202Z,21.1
2023-02-16T09:59:36.566Z,18.1
2023-02-16T10:00:23.985Z,21.4
2023-02-16T10:01:11.401Z,18.6
2023-02-16T10:01:58.783Z,18.4
2023-02-16T10:02:46.994Z,18.8
2023-02-16T10:03:34.359Z,20.9
2023-02-16T10:04:21.743Z,19.1
2023-02-16T10:05:09.090Z,20.4
2023-02-16T10:05:56.506Z,16.9
2023-02-16T10:06:43.850Z,21.0
2023-02-16T10:07:31.618Z,20.2
2023-02-16T10:08:18.958Z,17.8
2023-02-16T10:09:06.311Z,14.9
2023-02-16T10:09:53.656Z,17.8
2023-02-16T10:10:41.024Z,15.1
2023-02-16T10:11:28.365Z,16.8
2023-02-16T10:12:15.686Z,14.5
2023-02-16T10:13:03.020Z,13.7
2023-02-16T10:13:50.353Z,12.8
2023-02-16T10:14:37.687Z,11.8
2023-02-16T10:15:25.020Z,14.1
2023-02-16T10:16:12.415Z,14.2
2023-02-16T10:16:59.825Z,18.0
2023-02-16T10:17:47.163Z,15.5
2023-02-16T10:18:34.515Z,14.2
2023-02-16T10:19:21.826Z,17.6
2023-02-16T10:20:09.146Z,16.0
2023-02-16T10:20:56.476Z,16.4
2023-02-16T10:21:43.795Z,13.9
2023-02-16T10:22:31.260Z,13.2
2023-02-16T10:23:18.737Z,16.3
2023-02-16T10:24:06.282Z,13.3
2023-02-16T10:24:53.634Z,15.5
2023-02-16T10:25:40.972Z,15.5
2023-02-16T10:26:28.314Z,14.5
2023-02-16T10:27:15.626Z,14.8
2023-02-16T10:28:03.010Z,22.9
2023-02-16T10:28:50.329Z,16.3
2023-02-16T10:29:37.652Z,15.2
2023-02-16T10:30:25.560Z,18.0
2023-02-16T10:31:13.138Z,17.9
2023-02-16T10:32:00.679Z,17.9
2023-02-16T10:32:48.248Z,17.2
2023-02-16T10:33:35.593Z,13.7
2023-02-16T10:34:24.338Z,15.5
2023-02-16T10:35:12.011Z,14.9
2023-02-16T10:35:59.505Z,14.1
2023-02-16T10:36:47.023Z,12.9
2023-02-16T10:37:34.364Z,13.2
2023-02-16T10:38:21.709Z,14.2
2023-02-16T10:39:09.049Z,13.5
2023-02-16T10:39:56.396Z,16.0
2023-02-16T10:40:43.736Z,12.3
2023-02-16T10:41:31.198Z,12.0
2023-02-16T10:42:18.524Z,12.7
2023-02-16T10:43:05.837Z,10.9
2023-02-16T10:43:53.164Z,12.4
2023-02-16T10:44:40.567Z,13.4
2023-02-16T10:45:27.899Z,10.9
2023-02-16T10:46:15.275Z,11.9
2023-02-16T10:47:02.625Z,10.9
2023-02-16T10:47:49.972Z,11.4
2023-02-16T10:48:37.307Z,10.4
2023-02-16T10:49:24.630Z,11.2
2023-02-16T10:50:11.935Z,12.5
2023-02-16T10:50:59.259Z,11.5
2023-02-16T10:51:46.565Z,12.3
2023-02-16T10:52:33.872Z,14.6
2023-02-16T10:53:21.214Z,11.0
2023-02-16T10:54:08.511Z,11.0
2023-02-16T10:54:55.849Z,13.3
2023-02-16T10:55:43.406Z,14.6
2023-02-16T10:56:30.751Z,12.1
2023-02-16T10:57:18.073Z,16.0
2023-02-16T10:58:05.408Z,13.7
2023-02-16T10:58:52.709Z,15.0
2023-02-16T10:59:40.044Z,15.6
2023-02-16T11:00:27.356Z,16.2
2023-02-16T11:01:15.012Z,16.0
2023-02-16T11:02:02.493Z,16.4
2023-02-16T11:02:49.825Z,15.2
2023-02-16T11:03:37.141Z,13.5
2023-02-16T11:04:24.493Z,15.1
2023-02-16T11:05:11.844Z,16.8
2023-02-16T11:05:59.208Z,14.4
2023-02-16T11:06:46.542Z,14.6
2023-02-16T11:07:33.962Z,14.6
2023-02-16T11:08:21.312Z,14.0
2023-02-16T11:09:08.622Z,14.7
2023-02-16T11:09:55.963Z,14.3
2023-02-16T11:10:43.290Z,13.1
2023-02-16T11:11:30.651Z,14.7
2023-02-16T11:12:18.028Z,13.8
2023-02-16T11:13:05.395Z,12.4
2023-02-16T11:13:52.720Z,12.9
2023-02-16T11:14:40.053Z,14.1
2023-02-16T11:15:27.420Z,11.4
2023-02-16T11:16:14.781Z,10.8
2023-02-16T11:17:02.141Z,11.8
2023-02-16T11:17:49.464Z,10.0
2023-02-16T11:18:36.914Z,12.7
2023-02-16T11:19:24.275Z,12.6
2023-02-16T11:20:11.626Z,10.8
2023-02-16T11:20:59.102Z,11.2
2023-02-16T11:21:46.429Z,12.4
2023-02-16T11:22:33.928Z,11.9
2023-02-16T11:23:21.236Z,11.5
2023-02-16T11:24:09.319Z,12.0
2023-02-16T11:24:56.701Z,11.0
2023-02-16T11:25:44.703Z,10.1
2023-02-16T11:26:32.009Z,10.9
2023-02-16T11:27:19.371Z,11.0
2023-02-16T11:28:06.953Z,11.3
2023-02-16T11:28:54.287Z,10.6
2023-02-16T11:29:41.611Z,10.6
2023-02-16T11:30:28.964Z,11.1
2023-02-16T11:31:16.444Z,13.1
2023-02-16T11:32:03.823Z,11.6
2023-02-16T11:32:51.226Z,11.3
2023-02-16T11:33:38.580Z,11.0
2023-02-16T11:34:25.891Z,11.1
2023-02-16T11:35:13.323Z,11.6
2023-02-16T11:36:00.652Z,13.3
2023-02-16T11:36:47.969Z,10.1
2023-02-16T11:37:35.331Z,10.6
2023-02-16T11:38:22.652Z,10.1
2023-02-16T11:39:11.237Z,10.5
2023-02-16T11:39:58.642Z,10.5
2023-02-16T11:40:45.998Z,11.4
2023-02-16T11:41:33.331Z,11.4
2023-02-16T11:42:20.723Z,12.2
2023-02-16T11:43:08.581Z,10.5
2023-02-16T11:43:56.124Z,10.5
2023-02-16T11:44:43.622Z,10.0
2023-02-16T11:45:31.505Z,9.7
2023-02-16T11:46:18.966Z,10.5
2023-02-16T11:47:06.364Z,10.3
2023-02-16T11:47:53.689Z,10.5
2023-02-16T11:48:40.992Z,11.7
2023-02-16T11:49:28.439Z,9.6
2023-02-16T11:50:15.862Z,10.4
2023-02-16T11:51:03.410Z,10.8
2023-02-16T11:51:51.057Z,9.8
2023-02-16T11:52:38.770Z,10.8
2023-02-16T11:53:26.121Z,11.6
2023-02-16T11:54:13.431Z,11.3
2023-02-16T11:55:00.863Z,10.5
2023-02-16T11:55:48.201Z,11.1
2023-02-16T11:56:35.581Z,10.5
2023-02-16T11:57:22.971Z,8.6
2023-02-16T11:58:10.336Z,10.5
2023-02-16T11:58:57.654Z,11.5
2023-02-16T11:59:45.038Z,9.7
2023-02-16T12:00:32.560Z,10.2
2023-02-16T12:01:19.925Z,12.0
2023-02-16T12:02:07.329Z,12.9
2023-02-16T12:02:54.715Z,22.1
2023-02-16T12:03:42.076Z,22.7
2023-02-16T12:04:29.441Z,24.5
2023-02-16T12:05:17.358Z,22.9
2023-02-16T12:06:04.706Z,24.6
2023-02-16T12:06:52.351Z,20.9
2023-02-16T12:07:39.719Z,24.4
2023-02-16T12:08:27.077Z,24.2
2023-02-16T12:09:14.450Z,23.8
2023-02-16T12:10:01.852Z,24.5
2023-02-16T12:10:49.258Z,26.5
2023-02-16T12:11:36.645Z,24.4
2023-02-16T12:12:23.970Z,22.7
2023-02-16T12:13:11.327Z,24.7
2023-02-16T12:13:58.930Z,24.3
2023-02-16T12:14:46.246Z,24.2
2023-02-16T12:15:33.592Z,21.9
2023-02-16T12:16:21.204Z,21.8
2023-02-16T12:17:08.571Z,18.2
2023-02-16T12:17:55.962Z,16.3
2023-02-16T12:18:43.363Z,15.9
2023-02-16T12:19:30.693Z,13.3
2023-02-16T12:20:18.002Z,13.1
2023-02-16T12:21:05.444Z,13.8
2023-02-16T12:21:52.930Z,15.3
2023-02-16T12:22:40.274Z,15.8
2023-02-16T12:23:27.663Z,14.4
2023-02-16T12:24:14.998Z,12.5
2023-02-16T12:25:02.372Z,12.4
2023-02-16T12:25:49.792Z,13.1
2023-02-16T12:26:37.132Z,13.3
2023-02-16T12:27:24.481Z,11.8
2023-02-16T12:28:13.372Z,11.2
2023-02-16T12:29:01.054Z,11.9
2023-02-16T12:29:48.861Z,9.9
2023-02-16T12:30:36.445Z,11.4
2023-02-16T12:31:23.890Z,12.4
2023-02-16T12:32:11.328Z,12.2
2023-02-16T12:32:58.671Z,12.8
2023-02-16T12:33:46.026Z,11.6
2023-02-16T12:34:33.395Z,10.9
2023-02-16T12:35:20.725Z,11.0
2023-02-16T12:36:08.226Z,13.0
2023-02-16T12:36:55.573Z,11.6
2023-02-16T12:37:42.892Z,13.1
2023-02-16T12:38:30.207Z,10.2
2023-02-16T12:39:17.545Z,12.1
2023-02-16T12:40:04.882Z,12.3
2023-02-16T12:40:52.192Z,14.7
2023-02-16T12:41:39.518Z,14.7
2023-02-16T12:42:26.854Z,14.3
2023-02-16T12:43:14.169Z,12.0
2023-02-16T12:44:01.545Z,13.9
2023-02-16T12:44:48.877Z,13.9
2023-02-16T12:45:36.202Z,13.6
2023-02-16T12:46:24.074Z,14.7
2023-02-16T12:47:11.428Z,14.6
2023-02-16T12:47:58.869Z,14.5
2023-02-16T12:48:46.216Z,14.2
2023-02-16T12:49:33.562Z,13.6
2023-02-16T12:50:20.876Z,12.8
2023-02-16T12:51:08.195Z,15.3
2023-02-16T12:51:56.615Z,28.0
2023-02-16T12:52:45.124Z,19.6
2023-02-16T12:53:32.539Z,18.9
2023-02-16T12:54:19.883Z,15.6
2023-02-16T12:55:07.221Z,16.2
2023-02-16T12:55:54.573Z,12.9
2023-02-16T12:56:41.918Z,13.0
2023-02-16T12:57:30.868Z,12.8
2023-02-16T12:58:18.290Z,13.8
2023-02-16T12:59:05.612Z,10.7
2023-02-16T12:59:52.960Z,13.2
2023-02-16T13:00:40.305Z,11.2
2023-02-16T13:01:27.692Z,12.1
2023-02-16T13:02:16.574Z,11.3
2023-02-16T13:03:05.017Z,12.8
2023-02-16T13:03:52.551Z,10.8
2023-02-16T13:04:39.901Z,12.5
2023-02-16T13:05:27.235Z,11.5
2023-02-16T13:06:14.575Z,10.8
2023-02-16T13:07:02.150Z,12.5
2023-02-16T13:07:49.484Z,10.3
2023-02-16T13:08:36.841Z,10.8
2023-02-16T13:09:24.171Z,12.5
2023-02-16T13:10:11.495Z,12.4
2023-02-16T13:10:58.878Z,11.4
2023-02-16T13:11:46.301Z,9.4
2023-02-16T13:12:33.692Z,10.8
2023-02-16T13:13:21.085Z,10.4
2023-02-16T13:14:08.408Z,10.8
2023-02-16T13:14:55.736Z,11.6
2023-02-16T13:15:43.064Z,10.9
2023-02-16T13:16:31.131Z,16.3
2023-02-16T13:17:18.685Z,11.7
2023-02-16T13:18:06.143Z,10.5
2023-02-16T13:18:53.495Z,11.8
2023-02-16T13:19:40.844Z,12.1
2023-02-16T13:20:28.180Z,10.8
2023-02-16T13:21:15.512Z,12.7
2023-02-16T13:22:02.833Z,11.4
2023-02-16T13:22:50.140Z,14.2
2023-02-16T13:23:37.465Z,12.8
2023-02-16T13:24:24.821Z,13.4
2023-02-16T13:25:12.229Z,12.7
2023-02-16T13:25:59.661Z,10.2
2023-02-16T13:26:47.076Z,11.1
2023-02-16T13:27:34.456Z,11.0
2023-02-16T13:28:21.784Z,10.4
2023-02-16T13:29:09.192Z,12.9
2023-02-16T13:29:56.614Z,11.8
2023-02-16T13:30:44.016Z,10.5
2023-02-16T13:31:31.433Z,10.7
2023-02-16T13:32:20.193Z,10.3
2023-02-16T13:33:08.549Z,11.7
2023-02-16T13:33:55.906Z,9.7
2023-02-16T13:34:43.253Z,9.9
2023-02-16T13:35:30.591Z,11.3
2023-02-16T13:36:17.909Z,11.8
2023-02-16T13:37:05.242Z,10.8
2023-02-16T13:37:52.567Z,8.0
2023-02-16T13:38:39.892Z,13.7
2023-02-16T13:39:27.215Z,10.7
2023-02-16T13:40:14.519Z,9.8
2023-02-16T13:41:01.852Z,9.1
2023-02-16T13:41:49.187Z,9.7
2023-02-16T13:42:36.519Z,8.7
2023-02-16T13:43:23.893Z,10.3
2023-02-16T13:44:11.236Z,9.5
2023-02-16T13:44:58.734Z,10.9
2023-02-16T13:45:46.135Z,10.3
2023-02-16T13:46:33.494Z,9.5
2023-02-16T13:47:20.832Z,10.0
2023-02-16T13:48:08.289Z,10.1
2023-02-16T13:48:56.171Z,9.3
2023-02-16T13:49:43.609Z,10.1
2023-02-16T13:50:30.958Z,10.2
2023-02-16T13:51:18.290Z,10.5
2023-02-16T13:52:05.625Z,10.3
2023-02-16T13:52:52.956Z,10.8
2023-02-16T13:53:40.308Z,9.3
2023-02-16T13:54:27.627Z,9.4
2023-02-16T13:55:15.059Z,12.0
2023-02-16T13:56:02.779Z,8.8
2023-02-16T13:56:50.323Z,10.3
2023-02-16T13:57:37.734Z,10.1
2023-02-16T13:58:25.075Z,8.4
2023-02-16T13:59:12.425Z,9.7
2023-02-16T13:59:59.829Z,10.0
2023-02-16T14:00:47.527Z,9.1
2023-02-16T14:01:34.983Z,10.9
2023-02-16T14:02:22.343Z,10.1
2023-02-16T14:03:11.995Z,9.0
2023-02-16T14:03:59.636Z,9.6
2023-02-16T14:04:47.050Z,9.7
2023-02-16T14:05:34.890Z,11.2
2023-02-16T14:06:22.265Z,9.9
2023-02-16T14:07:10.113Z,9.3
2023-02-16T14:07:57.582Z,10.5
2023-02-16T14:08:44.921Z,10.8
2023-02-16T14:09:32.252Z,11.0
2023-02-16T14:10:19.575Z,9.9
2023-02-16T14:11:06.916Z,10.8
2023-02-16T14:11:54.336Z,10.2
2023-02-16T14:12:41.651Z,9.6
2023-02-16T14:13:28.972Z,11.6
2023-02-16T14:14:16.316Z,9.4
2023-02-16T14:15:03.680Z,8.9
2023-02-16T14:15:51.082Z,10.2
2023-02-16T14:16:38.590Z,9.4
2023-02-16T14:17:25.895Z,9.1
2023-02-16T14:18:13.310Z,9.2
2023-02-16T14:19:00.656Z,10.8
2023-02-16T14:19:47.985Z,11.8
2023-02-16T14:20:35.292Z,13.3
2023-02-16T14:21:22.666Z,12.4
2023-02-16T14:22:09.985Z,11.2
2023-02-16T14:22:57.338Z,12.5
2023-02-16T14:23:44.694Z,11.4
2023-02-16T14:24:32.012Z,11.9
2023-02-16T14:25:19.622Z,11.8
2023-02-16T14:26:07.070Z,11.1
2023-02-16T14:26:54.469Z,10.0
2023-02-16T14:27:41.811Z,10.8
2023-02-16T14:28:29.132Z,10.1
2023-02-16T14:29:16.947Z,11.6
2023-02-16T14:30:04.739Z,10.2
2023-02-16T14:30:52.116Z,10.1
2023-02-16T14:31:39.740Z,11.8
2023-02-16T14:32:27.149Z,12.3
2023-02-16T14:33:14.485Z,11.7
2023-02-16T14:34:01.848Z,10.6
2023-02-16T14:34:49.266Z,11.2
2023-02-16T14:35:36.586Z,9.5
2023-02-16T14:36:23.941Z,9.6
2023-02-16T14:37:11.384Z,10.2
2023-02-16T14:37:58.718Z,10.3
2023-02-16T14:38:46.100Z,10.4
2023-02-16T14:39:34.979Z,11.0
2023-02-16T14:40:23.730Z,8.9
2023-02-16T14:41:11.052Z,10.5
2023-02-16T14:41:58.375Z,11.0
2023-02-16T14:42:45.701Z,8.2
2023-02-16T14:43:33.046Z,10.1
2023-02-16T14:44:20.372Z,9.2
2023-02-16T14:45:07.697Z,11.2
2023-02-16T14:45:55.112Z,13.9
2023-02-16T14:46:42.509Z,12.7
2023-02-16T14:47:29.898Z,13.3
2023-02-16T14:48:17.323Z,12.6
2023-02-16T14:49:04.625Z,12.1
2023-02-16T14:49:52.110Z,11.1
2023-02-16T14:50:39.458Z,11.5
2023-02-16T14:51:26.825Z,13.2
2023-02-16T14:52:14.181Z,15.8
2023-02-16T14:53:01.521Z,11.8
2023-02-16T14:53:48.884Z,12.6
2023-02-16T14:54:36.622Z,13.2
2023-02-16T14:55:24.032Z,12.6
2023-02-16T14:56:11.558Z,15.2
2023-02-16T14:56:58.897Z,14.8
2023-02-16T14:57:46.221Z,13.2
2023-02-16T14:58:33.551Z,12.9
2023-02-16T14:59:20.871Z,13.5
2023-02-16T15:00:10.351Z,14.3
2023-02-16T15:00:57.718Z,10.6
2023-02-16T15:01:45.068Z,10.6
2023-02-16T15:02:32.425Z,10.2
2023-02-16T15:03:21.596Z,11.6
2023-02-16T15:04:09.630Z,8.8
2023-02-16T15:04:57.028Z,11.3
2023-02-16T15:05:44.387Z,10.0
2023-02-16T15:06:31.734Z,11.9
2023-02-16T15:07:19.087Z,13.8
2023-02-16T15:08:06.428Z,10.8
2023-02-16T15:08:53.783Z,14.7
2023-02-16T15:09:41.124Z,15.4
2023-02-16T15:10:28.529Z,15.0
2023-02-16T15:11:15.880Z,21.2
2023-02-16T15:12:03.729Z,24.0
2023-02-16T15:12:51.484Z,23.1
2023-02-16T15:13:38.806Z,20.1
2023-02-16T15:14:26.315Z,16.5
2023-02-16T15:15:13.641Z,16.2
2023-02-16T15:16:01.016Z,13.0